Time;durP1;ratioP1;P1;durP2;ratioP2;P2;SDS_P1;SDS_P2;PMS_P1;PMS_P2;Temp;Humidity;BMP_temperature;BMP_pressure;BME280_temperature;BME280_humidity;BME280_pressure;Samples;Min_cycle;Max_cycle;Signal;HPM_P1;HPM_P2
2023/09/05 00:01:19;;;;;;;8.30;7.53;;;;;;;16.63;100.00;102004.19;10456889;28;20097;-68
2023/09/05 00:06:19;;;;;;;8.90;7.20;;;;;;;16.62;100.00;102008.81;10457092;28;20037;-68
2023/09/05 00:11:20;;;;;;;8.82;7.93;;;;;;;16.57;100.00;101999.56;10455377;28;20033;-68
2023/09/05 00:16:20;;;;;;;198.98;190.38;;;;;;;16.50;100.00;101997.69;10455091;28;20047;-67
2023/09/05 00:21:21;;;;;;;21.10;19.70;;;;;;;16.59;100.00;101998.31;10455622;28;20083;-68
2023/09/05 00:26:21;;;;;;;29.20;27.67;;;;;;;16.52;100.00;101991.97;10456053;28;20037;-68
2023/09/05 00:31:22;;;;;;;89.45;85.30;;;;;;;16.52;100.00;101990.09;10455527;28;20452;-67
2023/09/05 00:36:23;;;;;;;107.45;102.85;;;;;;;16.58;100.00;101985.66;10455195;28;20091;-68
2023/09/05 00:41:24;;;;;;;139.40;133.43;;;;;;;16.60;100.00;101982.75;10455307;28;20053;-68
2023/09/05 00:46:25;;;;;;;131.07;125.68;;;;;;;16.62;100.00;101980.63;10453247;28;20111;-67
2023/09/05 00:51:25;;;;;;;109.20;104.18;;;;;;;16.54;100.00;101970.75;10454108;28;20095;-68
2023/09/05 00:56:26;;;;;;;161.38;154.18;;;;;;;16.48;100.00;101966.97;10454681;28;20061;-68
2023/09/05 01:01:26;;;;;;;269.80;258.60;;;;;;;16.54;100.00;101972.66;10437609;28;20036;-68
2023/09/05 01:06:32;;;;;;;321.40;307.13;;;;;;;16.48;100.00;101969.69;10454331;28;20056;-68
2023/09/05 01:11:33;;;;;;;358.67;343.53;;;;;;;16.39;100.00;101962.75;10452295;28;20104;-68
2023/09/05 01:16:33;;;;;;;395.38;378.25;;;;;;;16.40;100.00;101958.97;10453516;28;20071;-68
2023/09/05 01:21:39;;;;;;;376.95;360.42;;;;;;;16.41;100.00;101963.38;10451667;28;20503;-68
2023/09/05 01:26:39;;;;;;;439.23;419.63;;;;;;;16.45;100.00;101947.41;10420213;28;20087;-68
2023/09/05 01:31:40;;;;;;;431.85;412.83;;;;;;;16.49;100.00;101948.66;10435875;28;20082;-68
2023/09/05 01:36:40;;;;;;;442.25;422.02;;;;;;;16.48;100.00;101942.34;10451478;28;20379;-68
2023/09/05 01:41:41;;;;;;;457.50;436.42;;;;;;;16.47;100.00;101939.84;10451758;28;20059;-68
2023/09/05 01:46:42;;;;;;;458.10;437.13;;;;;;;16.49;100.00;101941.28;10453711;28;20033;-67
2023/09/05 01:51:43;;;;;;;471.60;449.83;;;;;;;16.49;100.00;101943.19;10452283;28;20037;-68
2023/09/05 01:56:43;;;;;;;486.23;463.35;;;;;;;16.46;100.00;101952.69;10452805;28;20041;-67
2023/09/05 02:01:44;;;;;;;500.77;476.98;;;;;;;16.44;100.00;101943.84;10454008;28;20033;-68
2023/09/05 02:06:44;;;;;;;510.38;485.45;;;;;;;16.46;100.00;101935.41;10453431;28;20075;-68
2023/09/05 02:11:44;;;;;;;519.15;493.95;;;;;;;16.45;100.00;101937.31;10452487;28;20032;-67
2023/09/05 02:16:45;;;;;;;542.80;516.13;;;;;;;16.47;100.00;101926.16;10452519;28;20079;-70
2023/09/05 02:21:46;;;;;;;550.42;522.97;;;;;;;16.45;100.00;101923.63;10467631;28;20029;-68
2023/09/05 02:26:46;;;;;;;541.08;513.92;;;;;;;16.39;100.00;101909.97;10452122;28;20044;-68
2023/09/05 02:31:47;;;;;;;551.90;524.33;;;;;;;16.35;100.00;101908.72;10450950;28;20601;-69
2023/09/05 02:36:48;;;;;;;562.63;534.20;;;;;;;16.31;100.00;101907.47;10451455;28;20420;-68
2023/09/05 02:41:48;;;;;;;549.50;521.78;;;;;;;16.26;100.00;101899.88;10438406;28;20061;-68
2023/09/05 02:46:50;;;;;;;558.88;530.75;;;;;;;16.20;100.00;101911.66;10458767;28;20041;-68
2023/09/05 02:51:51;;;;;;;572.53;543.42;;;;;;;16.16;100.00;101921.34;10459472;28;20033;-67
2023/09/05 02:56:51;;;;;;;568.65;539.45;;;;;;;16.09;100.00;101921.34;10459432;28;20476;-67
2023/09/05 03:01:52;;;;;;;562.53;533.85;;;;;;;16.03;100.00;101917.53;10458773;28;20116;-68
2023/09/05 03:06:52;;;;;;;578.20;548.88;;;;;;;15.93;100.00;101911.66;10459028;28;20051;-68
2023/09/05 03:11:52;;;;;;;568.10;539.15;;;;;;;15.90;100.00;101912.06;10458414;28;20037;-68
2023/09/05 03:16:53;;;;;;;566.90;537.45;;;;;;;15.86;100.00;101909.94;10458984;28;20039;-67
2023/09/05 03:21:53;;;;;;;579.45;549.65;;;;;;;15.79;100.00;101896.28;10458210;28;20481;-67
2023/09/05 03:26:54;;;;;;;572.80;543.25;;;;;;;15.72;100.00;101906.34;10455921;28;20495;-68
2023/09/05 03:31:54;;;;;;;568.55;539.47;;;;;;;15.66;100.00;101901.69;10457680;28;20064;-67
2023/09/05 03:36:55;;;;;;;569.53;540.67;;;;;;;15.59;100.00;101899.78;10456965;28;20435;-68
2023/09/05 03:41:55;;;;;;;564.28;535.42;;;;;;;15.63;100.00;101886.56;10455334;28;20396;-67
2023/09/05 03:46:57;;;;;;;557.15;529.30;;;;;;;15.58;100.00;101889.09;10455191;28;20028;-68
2023/09/05 03:51:58;;;;;;;554.50;526.85;;;;;;;15.56;100.00;101893.91;10456442;28;20047;-67
2023/09/05 03:56:58;;;;;;;534.67;507.50;;;;;;;15.55;100.00;101884.03;10457669;28;20089;-68
2023/09/05 04:01:58;;;;;;;529.03;502.92;;;;;;;15.52;100.00;101876.25;10457866;28;20460;-68
2023/09/05 04:06:59;;;;;;;508.90;484.15;;;;;;;15.46;100.00;101867.00;10456313;28;20064;-68
2023/09/05 04:11:59;;;;;;;497.52;473.33;;;;;;;15.46;100.00;101868.88;10455417;28;20037;-68
2023/09/05 04:16:59;;;;;;;468.17;446.25;;;;;;;15.44;100.00;101873.69;10456415;28;20033;-68
2023/09/05 04:22:00;;;;;;;452.15;431.23;;;;;;;15.40;100.00;101878.72;10456402;28;20032;-68
2023/09/05 04:27:00;;;;;;;426.25;407.27;;;;;;;15.34;100.00;101880.38;10454763;28;20507;-68
2023/09/05 04:32:01;;;;;;;396.40;379.13;;;;;;;15.26;100.00;101871.56;10455184;28;20064;-68
2023/09/05 04:37:01;;;;;;;358.17;342.40;;;;;;;15.21;100.00;101877.63;10454706;28;20128;-67
2023/09/05 04:42:02;;;;;;;304.02;289.67;;;;;;;15.18;100.00;101869.84;10454072;28;20064;-70
2023/09/05 04:47:27;;;;;;;250.90;239.98;;;;;;;15.18;100.00;101878.03;10454939;28;20420;-69
2023/09/05 04:52:28;;;;;;;185.55;177.10;;;;;;;15.16;100.00;101877.41;10453367;28;20495;-69
2023/09/05 04:57:29;;;;;;;135.52;129.68;;;;;;;15.18;100.00;101885.38;10455066;28;20039;-70
2023/09/05 05:02:31;;;;;;;113.45;108.53;;;;;;;15.19;100.00;101893.38;10452040;28;20029;-70
2023/09/05 05:07:32;;;;;;;82.55;78.55;;;;;;;15.20;100.00;101889.59;10453046;28;20090;-68
2023/09/05 05:12:32;;;;;;;51.28;48.33;;;;;;;15.23;100.00;101891.91;10453699;28;20182;-68
2023/09/05 05:17:33;;;;;;;51.55;48.90;;;;;;;15.24;100.00;101884.56;10454532;28;20507;-68
2023/09/05 05:22:34;;;;;;;38.40;36.10;;;;;;;15.29;100.00;101877.44;10453927;28;20403;-68
2023/09/05 05:27:34;;;;;;;28.33;26.67;;;;;;;15.32;100.00;101882.50;10436163;28;20064;-68
2023/09/05 05:32:35;;;;;;;23.58;22.02;;;;;;;15.35;100.00;101882.09;10455188;28;20061;-68
2023/09/05 05:37:35;;;;;;;22.45;20.77;;;;;;;15.45;100.00;101884.44;10454227;28;20172;-68
2023/09/05 05:42:35;;;;;;;17.45;15.75;;;;;;;15.49;100.00;101890.31;10454890;28;20468;-68
2023/09/05 05:47:36;;;;;;;17.00;15.70;;;;;;;15.58;100.00;101889.91;10453248;28;20129;-68
2023/09/05 05:52:38;;;;;;;18.65;17.25;;;;;;;15.69;100.00;101888.50;10452282;28;20100;-68
2023/09/05 05:57:39;;;;;;;16.30;14.93;;;;;;;16.35;100.00;101890.41;10436100;28;20403;-68
2023/09/05 06:02:39;;;;;;;19.52;17.95;;;;;;;17.65;100.00;101901.38;10452705;28;20061;-68
2023/09/05 06:07:40;;;;;;;21.25;19.80;;;;;;;18.62;100.00;101896.38;10452476;28;20049;-68
2023/09/05 06:12:40;;;;;;;26.25;24.60;;;;;;;19.45;100.00;101892.25;10451096;28;20064;-68
2023/09/05 06:17:41;;;;;;;23.40;20.50;;;;;;;19.83;100.00;101883.69;10457308;28;20032;-68
2023/09/05 06:22:41;;;;;;;18.23;16.58;;;;;;;20.17;100.00;101895.00;10442036;28;20048;-68
2023/09/05 06:27:43;;;;;;;28.70;26.33;;;;;;;20.65;100.00;101881.03;10459597;28;20059;-69
2023/09/05 06:32:43;;;;;;;27.25;25.70;;;;;;;20.98;100.00;101892.47;10458470;28;20480;-69
2023/09/05 06:37:44;;;;;;;17.75;16.20;;;;;;;21.56;100.00;101892.28;10459878;28;20037;-68
2023/09/05 06:42:44;;;;;;;19.67;18.52;;;;;;;22.14;97.31;101883.91;10459605;28;20188;-69
2023/09/05 06:47:45;;;;;;;23.38;21.85;;;;;;;22.71;90.33;101883.69;10458859;28;20056;-68
2023/09/05 06:52:48;;;;;;;24.40;22.90;;;;;;;23.41;93.87;101880.16;10459625;28;20101;-68
2023/09/05 06:57:48;;;;;;;521.38;496.20;;;;;;;23.78;88.23;101881.41;10476133;28;20040;-69
2023/09/05 07:02:49;;;;;;;558.75;531.00;;;;;;;24.09;78.80;101893.56;10460816;28;20065;-69
2023/09/05 07:07:50;;;;;;;558.35;530.72;;;;;;;24.22;76.57;101887.59;10457346;28;20047;-68
2023/09/05 07:12:50;;;;;;;548.63;521.60;;;;;;;24.64;73.41;101889.56;10459358;28;20456;-68
2023/09/05 07:17:51;;;;;;;542.40;515.05;;;;;;;24.81;75.40;101881.91;10459406;28;20124;-68
2023/09/05 07:22:51;;;;;;;524.08;498.63;;;;;;;25.32;75.56;101888.78;10458525;28;20120;-69
2023/09/05 07:27:52;;;;;;;509.20;484.92;;;;;;;25.24;66.69;101879.91;10458080;28;20075;-68
2023/09/05 07:32:52;;;;;;;487.90;465.00;;;;;;;25.74;69.02;101891.38;10441002;28;20120;-69
2023/09/05 07:37:53;;;;;;;463.58;441.75;;;;;;;25.74;62.16;101891.38;10457106;28;20507;-68
2023/09/05 07:42:53;;;;;;;460.52;438.98;;;;;;;25.87;62.55;101884.47;10455223;28;20053;-68
2023/09/05 07:47:53;;;;;;;437.52;417.80;;;;;;;25.86;60.86;101866.16;10457680;28;20056;-68
2023/09/05 07:52:54;;;;;;;413.63;395.95;;;;;;;26.05;59.35;101866.44;10456001;28;20044;-68
2023/09/05 07:57:55;;;;;;;401.40;384.38;;;;;;;26.10;59.59;101858.09;10454489;28;20040;-68
2023/09/05 08:02:55;;;;;;;375.40;359.83;;;;;;;26.53;60.51;101850.28;10456669;28;20028;-69
2023/09/05 08:07:56;;;;;;;340.27;326.27;;;;;;;26.77;57.57;101856.03;10456632;28;20128;-68
2023/09/05 08:12:56;;;;;;;299.85;287.58;;;;;;;26.72;54.67;101872.75;10457584;28;20419;-68
2023/09/05 08:17:57;;;;;;;285.50;273.90;;;;;;;26.87;55.05;101850.47;10455112;28;20037;-68
2023/09/05 08:22:57;;;;;;;270.45;258.52;;;;;;;27.65;53.52;101869.22;10436984;28;20048;-68
2023/09/05 08:27:57;;;;;;;230.73;220.90;;;;;;;28.01;54.36;101868.97;10455418;28;20040;-69
2023/09/05 08:33:01;;;;;;;208.93;200.52;;;;;;;28.03;52.26;101869.50;10453513;28;20443;-69
2023/09/05 08:38:02;;;;;;;195.80;187.80;;;;;;;28.37;52.04;101880.63;10452821;28;20037;-68
2023/09/05 08:43:03;;;;;;;189.13;180.95;;;;;;;28.64;49.52;101882.03;10454480;28;20056;-69
2023/09/05 08:48:04;;;;;;;175.75;168.23;;;;;;;28.50;51.44;101879.13;10455363;28;20578;-69
2023/09/05 08:53:10;;;;;;;164.32;157.70;;;;;;;28.78;50.67;101882.13;10454035;28;20040;-68
2023/09/05 08:58:12;;;;;;;168.48;161.48;;;;;;;29.76;47.90;101888.94;10452805;28;20465;-69
2023/09/05 09:03:12;;;;;;;112.72;108.05;;;;;;;29.82;48.55;101898.06;10452738;28;20511;-68
2023/09/05 09:08:13;;;;;;;98.88;94.85;;;;;;;29.94;49.83;101901.22;10453394;28;20086;-68
2023/09/05 09:13:15;;;;;;;273.30;259.90;;;;;;;30.47;50.26;101894.44;10453130;28;20037;-69
2023/09/05 09:18:20;;;;;;;434.80;415.52;;;;;;;30.41;47.00;101890.06;10453380;28;20028;-69
2023/09/05 09:23:26;;;;;;;417.45;399.25;;;;;;;30.30;46.70;101889.44;10453784;28;20024;-69
2023/09/05 09:28:32;;;;;;;418.90;400.30;;;;;;;30.39;46.52;101873.63;10453780;28;20103;-69
2023/09/05 09:33:32;;;;;;;348.25;333.88;;;;;;;30.60;47.02;101868.50;10451952;28;20039;-69
2023/09/05 09:38:33;;;;;;;386.73;369.05;;;;;;;30.72;43.36;101857.59;10452227;28;20125;-69
2023/09/05 09:43:35;;;;;;;317.40;304.38;;;;;;;30.56;44.34;101859.03;10451042;28;20081;-69
2023/09/05 09:48:35;;;;;;;250.63;240.40;;;;;;;30.87;46.12;101850.06;10450603;28;20120;-68
2023/09/05 09:53:38;;;;;;;293.80;281.88;;;;;;;31.35;46.06;101860.78;10460287;28;20111;-69
2023/09/05 09:58:42;;;;;;;226.40;217.45;;;;;;;31.64;46.30;101849.16;10460776;28;20086;-68
2023/09/05 10:03:46;;;;;;;198.73;190.90;;;;;;;31.80;45.70;101838.41;10460831;28;20033;-69
2023/09/05 10:08:46;;;;;;;176.10;168.77;;;;;;;31.61;45.60;101836.63;10459714;28;20029;-69
2023/09/05 10:13:46;;;;;;;149.18;143.27;;;;;;;31.93;44.27;101835.56;10460478;28;20476;-69
2023/09/05 10:18:47;;;;;;;156.65;149.60;;;;;;;32.33;44.99;101829.19;10459044;28;20482;-69
2023/09/05 10:23:47;;;;;;;171.88;163.90;;;;;;;32.25;44.01;101825.19;10459192;28;20122;-69
2023/09/05 10:28:48;;;;;;;155.90;149.35;;;;;;;32.22;44.08;101825.00;10458630;28;20045;-69
2023/09/05 10:33:48;;;;;;;149.57;143.57;;;;;;;32.58;44.43;101817.28;10459517;28;20065;-69
2023/09/05 10:38:54;;;;;;;226.90;217.60;;;;;;;33.10;43.85;101814.59;10459284;28;20044;-69
2023/09/05 10:43:54;;;;;;;419.05;400.13;;;;;;;32.73;41.91;101813.19;10440551;28;20470;-69
2023/09/05 10:49:13;;;;;;;405.77;387.92;;;;;;;32.72;41.95;101805.94;10457874;28;20036;-69
2023/09/05 10:54:26;;;;;;;427.27;407.88;;;;;;;33.02;39.90;101798.56;10441895;28;20457;-69
2023/09/05 10:59:27;;;;;;;431.55;411.42;;;;;;;33.21;42.68;101800.25;10459331;28;20056;-69
2023/09/05 11:04:30;;;;;;;347.98;333.33;;;;;;;33.58;41.42;101806.38;10456775;28;20037;-69
2023/09/05 11:09:48;;;;;;;345.48;330.30;;;;;;;33.37;39.43;101797.75;10458206;28;20464;-69
2023/09/05 11:14:49;;;;;;;558.38;521.10;;;;;;;33.37;39.56;101794.94;10458006;28;20041;-69
2023/09/05 11:19:50;;;;;;;281.83;270.23;;;;;;;33.27;41.25;101796.13;10456350;28;20032;-69
2023/09/05 11:24:59;;;;;;;352.65;336.98;;;;;;;33.25;40.84;101785.22;10457840;28;20041;-69
2023/09/05 11:30:01;;;;;;;373.33;356.48;;;;;;;33.04;41.29;101779.44;10456416;28;20481;-69
2023/09/05 11:35:05;;;;;;;423.17;398.48;;;;;;;32.81;40.06;101783.50;10457727;28;20095;-69
2023/09/05 11:40:13;;;;;;;373.30;355.10;;;;;;;32.47;41.40;101768.25;10456723;28;20049;-69
2023/09/05 11:45:18;;;;;;;325.30;311.45;;;;;;;33.08;41.89;101757.97;10457728;28;20051;-69
2023/09/05 11:50:18;;;;;;;575.95;539.60;;;;;;;33.01;39.38;101760.44;10458075;28;20037;-69
2023/09/05 11:55:23;;;;;;;399.33;380.02;;;;;;;32.89;40.53;101768.66;10456877;28;20157;-69
2023/09/05 12:00:24;;;;;;;521.10;493.10;;;;;;;32.61;40.44;101768.97;10439611;28;20033;-69
2023/09/05 12:05:26;;;;;;;393.67;374.92;;;;;;;32.59;40.25;101760.03;10456640;28;20362;-70
2023/09/05 12:10:26;;;;;;;361.02;345.00;;;;;;;32.87;42.21;101754.16;10454170;28;20036;-69
2023/09/05 12:15:33;;;;;;;370.45;353.67;;;;;;;33.03;41.41;101744.13;10437734;28;20091;-69
2023/09/05 12:20:34;;;;;;;484.85;461.70;;;;;;;33.03;41.47;101740.50;10456195;28;20029;-69
2023/09/05 12:25:35;;;;;;;517.95;492.05;;;;;;;33.13;41.19;101751.38;10455518;28;20341;-69
2023/09/05 12:30:37;;;;;;;504.83;479.75;;;;;;;33.15;40.13;101751.03;10455741;28;20033;-69
2023/09/05 12:35:37;;;;;;;453.25;432.40;;;;;;;33.41;40.32;101735.00;10455248;28;20182;-69
2023/09/05 12:40:38;;;;;;;531.58;503.73;;;;;;;33.99;39.86;101743.97;10454953;28;20526;-69
2023/09/05 12:45:41;;;;;;;354.10;339.05;;;;;;;34.13;40.49;101746.56;10470930;28;20044;-69
2023/09/05 12:50:44;;;;;;;244.38;234.55;;;;;;;34.21;39.22;101749.34;10452867;28;20037;-69
2023/09/05 12:55:45;;;;;;;267.90;256.90;;;;;;;33.89;38.28;101750.78;10453104;28;20342;-69
2023/09/05 13:00:47;;;;;;;333.83;319.45;;;;;;;33.77;38.52;101739.41;10454132;28;20033;-69
2023/09/05 13:05:47;;;;;;;338.20;323.23;;;;;;;34.02;40.70;101735.72;10454338;28;20041;-69
2023/09/05 13:10:47;;;;;;;338.60;323.45;;;;;;;33.89;39.76;101736.72;10452157;28;20040;-69
2023/09/05 13:15:48;;;;;;;231.35;222.00;;;;;;;33.63;39.72;101724.72;10453066;28;20089;-69
2023/09/05 13:20:48;;;;;;;280.27;268.70;;;;;;;33.46;39.21;101717.97;10452716;28;20175;-69
2023/09/05 13:25:49;;;;;;;306.15;291.92;;;;;;;33.90;38.45;101721.50;10453241;28;20151;-69
2023/09/05 13:30:49;;;;;;;347.30;330.85;;;;;;;33.72;38.99;101722.72;10469827;28;20069;-69
2023/09/05 13:35:49;;;;;;;283.20;271.63;;;;;;;33.55;39.39;101718.81;10453120;28;20175;-69
2023/09/05 13:40:50;;;;;;;433.63;407.13;;;;;;;33.73;37.25;101715.97;10451905;28;20137;-69
2023/09/05 13:45:50;;;;;;;380.63;362.83;;;;;;;33.27;38.70;101717.50;10453838;28;20037;-69
2023/09/05 13:50:51;;;;;;;262.38;251.60;;;;;;;33.35;37.73;101716.69;10454052;28;20033;-69
2023/09/05 13:55:52;;;;;;;271.40;260.42;;;;;;;33.41;38.93;101706.94;10451950;28;20166;-69
2023/09/05 14:00:53;;;;;;;359.60;342.90;;;;;;;33.41;39.78;101706.09;10452672;28;20095;-69
2023/09/05 14:05:53;;;;;;;280.17;267.88;;;;;;;33.24;40.03;101704.13;10452946;28;20310;-69
2023/09/05 14:10:54;;;;;;;336.05;321.38;;;;;;;32.95;39.78;101697.19;10453102;28;20381;-69
2023/09/05 14:15:55;;;;;;;409.05;385.90;;;;;;;32.83;39.90;101683.00;10451754;28;20037;-70
2023/09/05 14:20:56;;;;;;;279.17;267.65;;;;;;;32.96;40.71;101684.84;10450144;28;20029;-69
2023/09/05 14:25:56;;;;;;;305.45;292.33;;;;;;;32.66;40.00;101667.00;10450985;28;20490;-70
2023/09/05 14:30:57;;;;;;;290.08;277.52;;;;;;;32.55;41.12;101660.91;10450209;28;20045;-69
2023/09/05 14:35:59;;;;;;;322.27;308.48;;;;;;;32.39;40.15;101662.50;10453432;28;20521;-69
2023/09/05 14:40:59;;;;;;;281.50;269.13;;;;;;;32.03;41.07;101657.13;10475762;28;20385;-69
2023/09/05 14:46:00;;;;;;;412.08;389.20;;;;;;;32.12;41.42;101669.19;10459463;28;20120;-69
2023/09/05 14:51:02;;;;;;;448.30;420.20;;;;;;;31.86;41.08;101666.28;10460624;28;20083;-69
2023/09/05 14:56:03;;;;;;;372.85;355.30;;;;;;;30.73;42.44;101669.13;10459009;28;20029;-69
2023/09/05 15:01:03;;;;;;;285.42;273.90;;;;;;;30.06;44.37;101671.72;10459084;28;20441;-69
2023/09/05 15:06:04;;;;;;;449.17;427.90;;;;;;;29.52;44.65;101667.69;10457955;28;20372;-69
2023/09/05 15:11:04;;;;;;;525.13;498.20;;;;;;;29.20;46.73;101652.63;10457223;28;20040;-69
2023/09/05 15:16:07;;;;;;;534.25;507.73;;;;;;;29.08;47.04;101650.31;10474242;28;20116;-68
2023/09/05 15:21:07;;;;;;;579.40;548.33;;;;;;;29.01;48.02;101657.44;10458654;28;20089;-69
2023/09/05 15:26:08;;;;;;;446.77;426.25;;;;;;;28.85;48.69;101656.81;10460137;28;20124;-69
2023/09/05 15:31:08;;;;;;;437.85;417.45;;;;;;;28.69;48.61;101650.63;10459364;28;20439;-68
2023/09/05 15:36:09;;;;;;;494.15;470.02;;;;;;;28.69;49.04;101648.69;10457245;28;20465;-68
2023/09/05 15:41:09;;;;;;;668.50;613.92;;;;;;;28.59;49.66;101647.97;10458691;28;20053;-68
2023/09/05 15:46:09;;;;;;;522.47;496.48;;;;;;;28.69;49.30;101639.50;10459696;28;20037;-68
2023/09/05 15:51:10;;;;;;;574.75;545.10;;;;;;;28.57;51.29;101639.94;10457162;28;20033;-68
2023/09/05 15:56:10;;;;;;;497.70;473.75;;;;;;;28.71;50.78;101642.78;10458241;28;20461;-68
2023/09/05 16:01:11;;;;;;;485.67;462.00;;;;;;;28.59;50.92;101639.63;10456075;28;20078;-68
2023/09/05 16:06:11;;;;;;;494.58;469.95;;;;;;;28.48;50.95;101644.53;10455524;28;20112;-68
2023/09/05 16:11:13;;;;;;;435.05;415.52;;;;;;;28.51;50.77;101635.56;10455110;28;20074;-68
2023/09/05 16:16:16;;;;;;;431.58;412.52;;;;;;;28.48;51.67;101636.16;10438158;28;20056;-69
2023/09/05 16:21:17;;;;;;;435.08;415.35;;;;;;;28.50;51.73;101648.69;10456187;28;20033;-68
2023/09/05 16:26:18;;;;;;;425.75;406.83;;;;;;;28.45;51.91;101634.81;10456943;28;20113;-68
2023/09/05 16:31:18;;;;;;;461.90;440.52;;;;;;;28.28;52.46;101642.81;10456317;28;20509;-68
2023/09/05 16:36:21;;;;;;;444.42;424.27;;;;;;;28.22;52.69;101644.84;10454137;28;20064;-69
2023/09/05 16:41:22;;;;;;;441.80;421.95;;;;;;;28.18;53.29;101637.41;10454536;28;20064;-68
2023/09/05 16:46:24;;;;;;;464.35;442.67;;;;;;;28.11;53.83;101631.34;10453690;28;20075;-69
2023/09/05 16:51:25;;;;;;;458.60;437.35;;;;;;;27.97;54.94;101634.84;10471410;28;20037;-68
2023/09/05 16:56:25;;;;;;;481.45;458.63;;;;;;;27.95;54.73;101637.13;10454442;28;20037;-68
2023/09/05 17:01:29;;;;;;;451.15;430.55;;;;;;;27.86;55.81;101638.06;10452902;28;20033;-68
2023/09/05 17:06:30;;;;;;;429.40;409.52;;;;;;;27.88;55.94;101642.19;10454195;28;20029;-68
2023/09/05 17:11:35;;;;;;;415.48;397.20;;;;;;;27.81;56.26;101637.00;10455283;28;20368;-68
2023/09/05 17:16:36;;;;;;;446.77;426.20;;;;;;;27.70;57.21;101638.22;10454202;28;20366;-68
2023/09/05 17:21:36;;;;;;;327.77;313.77;;;;;;;27.62;57.37;101647.19;10454499;28;20032;-68
2023/09/05 17:26:37;;;;;;;365.65;350.23;;;;;;;27.55;57.52;101661.47;10454624;28;20045;-68
2023/09/05 17:31:37;;;;;;;366.50;350.95;;;;;;;27.49;57.63;101659.84;10454316;28;20036;-68
2023/09/05 17:36:38;;;;;;;369.73;353.95;;;;;;;27.40;57.82;101660.78;10453278;28;20500;-68
2023/09/05 17:41:38;;;;;;;358.77;343.40;;;;;;;27.22;59.20;101667.88;10453876;28;20109;-68
2023/09/05 17:46:39;;;;;;;343.98;329.40;;;;;;;27.10;60.34;101660.72;10454616;28;20476;-68
2023/09/05 17:51:39;;;;;;;314.40;301.33;;;;;;;27.00;60.08;101668.31;10455539;28;20413;-69
2023/09/05 17:56:39;;;;;;;302.15;289.73;;;;;;;26.78;60.74;101668.75;10453164;28;20056;-68
2023/09/05 18:01:40;;;;;;;316.60;303.70;;;;;;;26.58;61.76;101673.31;10452592;28;20456;-68
2023/09/05 18:06:40;;;;;;;273.98;262.98;;;;;;;26.33;61.44;101674.25;10452772;28;20048;-68
2023/09/05 18:11:41;;;;;;;216.18;207.43;;;;;;;26.12;64.55;101690.16;10455768;28;20131;-68
2023/09/05 18:16:41;;;;;;;196.55;188.55;;;;;;;25.96;66.12;101686.59;10460707;28;20041;-68
2023/09/05 18:21:43;;;;;;;161.02;154.63;;;;;;;25.78;71.02;101686.34;10461285;28;20029;-68
2023/09/05 18:26:44;;;;;;;124.97;119.93;;;;;;;25.64;72.82;101694.41;10461299;28;20041;-68
2023/09/05 18:31:44;;;;;;;101.70;97.60;;;;;;;25.50;72.19;101694.97;10462145;28;20037;-68
2023/09/05 18:36:44;;;;;;;125.82;120.53;;;;;;;25.34;77.71;101698.06;10459703;28;20045;-68
2023/09/05 18:41:45;;;;;;;120.60;115.47;;;;;;;25.27;75.60;101713.03;10459446;28;20057;-68
2023/09/05 18:46:45;;;;;;;97.95;93.75;;;;;;;25.08;75.03;101709.09;10460365;28;20041;-75
2023/09/05 18:51:46;;;;;;;81.72;78.25;;;;;;;24.91;76.96;101714.03;10458677;28;20338;-76
2023/09/05 18:56:46;;;;;;;75.53;72.18;;;;;;;24.76;80.17;101709.28;10461206;28;20056;-79
2023/09/05 19:01:47;;;;;;;50.45;47.83;;;;;;;24.66;76.07;101721.16;10460968;28;20033;-79
2023/09/05 19:06:48;;;;;;;45.05;43.17;;;;;;;24.55;75.67;101733.34;10459550;28;20503;-79
2023/09/05 19:11:49;;;;;;;43.90;41.92;;;;;;;24.31;73.51;101747.59;10460393;28;20029;-77
2023/09/05 19:16:54;;;;;;;43.50;41.30;;;;;;;24.07;73.31;101743.59;10457966;28;20039;-78
2023/09/05 19:21:55;;;;;;;42.40;39.80;;;;;;;23.85;74.39;101740.97;10442836;28;20056;-78
2023/09/05 19:26:55;;;;;;;37.35;35.00;;;;;;;23.70;74.15;101744.44;10461975;28;20445;-80
2023/09/05 19:31:56;;;;;;;38.58;36.78;;;;;;;23.53;74.66;101744.56;10464255;28;20121;-79
2023/09/05 19:36:56;;;;;;;33.53;32.03;;;;;;;23.42;75.44;101743.66;10459591;28;20418;-70
2023/09/05 19:41:57;;;;;;;31.10;29.67;;;;;;;23.30;75.39;101742.16;10457282;28;20417;-68
2023/09/05 19:46:57;;;;;;;34.03;31.80;;;;;;;23.11;75.33;101749.97;10440539;28;20108;-68
2023/09/05 19:51:57;;;;;;;29.05;27.67;;;;;;;22.94;75.71;101752.81;10440572;28;20124;-68
2023/09/05 19:56:58;;;;;;;26.58;25.17;;;;;;;22.81;75.70;101758.72;10457466;28;20090;-68
2023/09/05 20:01:58;;;;;;;26.27;24.98;;;;;;;22.70;76.39;101755.84;10439082;28;20119;-68
2023/09/05 20:06:59;;;;;;;25.40;24.05;;;;;;;22.58;76.35;101760.66;10455956;28;20044;-67
2023/09/05 20:12:01;;;;;;;24.88;22.98;;;;;;;22.46;77.51;101754.44;10457459;28;20033;-67
2023/09/05 20:17:02;;;;;;;84.03;80.40;;;;;;;22.45;79.15;101755.53;10455631;28;20033;-68
2023/09/05 20:22:02;;;;;;;211.07;202.63;;;;;;;22.31;79.02;101755.09;10453786;28;20116;-67
2023/09/05 20:27:03;;;;;;;204.55;196.38;;;;;;;22.17;79.37;101751.84;10454096;28;20116;-67
2023/09/05 20:32:03;;;;;;;226.70;216.93;;;;;;;22.13;80.41;101760.84;10438168;28;20037;-67
2023/09/05 20:37:04;;;;;;;221.02;211.82;;;;;;;22.18;83.55;101760.97;10455737;28;20055;-67
2023/09/05 20:42:05;;;;;;;231.63;222.10;;;;;;;22.16;84.38;101757.63;10454825;28;20075;-68
2023/09/05 20:47:05;;;;;;;256.67;246.30;;;;;;;22.06;85.33;101756.34;10453498;28;20033;-67
2023/09/05 20:52:06;;;;;;;246.45;236.38;;;;;;;21.95;85.24;101762.81;10437310;28;20087;-67
2023/09/05 20:57:06;;;;;;;206.20;197.50;;;;;;;21.88;85.07;101759.38;10453469;28;20043;-67
2023/09/05 21:02:06;;;;;;;236.35;224.50;;;;;;;21.79;84.62;101758.13;10453771;28;20057;-67
2023/09/05 21:07:07;;;;;;;242.20;229.45;;;;;;;21.71;84.91;101745.63;10454278;28;20124;-67
2023/09/05 21:12:07;;;;;;;225.93;216.23;;;;;;;21.61;85.47;101759.25;10454167;28;20049;-67
2023/09/05 21:17:08;;;;;;;290.00;277.55;;;;;;;21.50;86.13;101754.63;10454057;28;20037;-68
2023/09/05 21:22:08;;;;;;;250.43;239.93;;;;;;;21.38;85.77;101760.25;10452335;28;20503;-68
2023/09/05 21:27:09;;;;;;;189.30;181.07;;;;;;;21.27;85.68;101770.19;10436473;28;20105;-67
2023/09/05 21:32:12;;;;;;;179.35;171.73;;;;;;;21.19;85.76;101765.09;10454320;28;20066;-68
2023/09/05 21:37:12;;;;;;;175.15;167.75;;;;;;;21.10;86.03;101761.91;10452176;28;20174;-67
2023/09/05 21:42:13;;;;;;;197.20;187.93;;;;;;;21.02;86.71;101762.28;10453790;28;20567;-68
2023/09/05 21:47:13;;;;;;;211.15;202.50;;;;;;;20.96;87.02;101765.19;10450600;28;20029;-67
2023/09/05 21:52:14;;;;;;;212.15;203.63;;;;;;;20.92;88.11;101756.59;10453782;28;20061;-68
2023/09/05 21:57:14;;;;;;;188.75;181.15;;;;;;;20.91;87.57;101763.19;10454058;28;20071;-68
2023/09/05 22:02:14;;;;;;;180.63;172.73;;;;;;;20.85;88.08;101758.66;10453773;28;20493;-68